createdAt,value
2022-12-23T00:02:13.520Z,99818.25
2022-12-23T00:04:42.650Z,99811.19
2022-12-23T00:07:10.321Z,99814.72
2022-12-23T00:09:38.025Z,99815.56
2022-12-23T00:12:24.919Z,99818.25
2022-12-23T00:15:07.700Z,99814.94
2022-12-23T00:17:35.415Z,99816.59
2022-12-23T00:20:04.701Z,99817.63
2022-12-23T00:22:49.904Z,99823.63
2022-12-23T00:25:17.544Z,99819.88
2022-12-23T00:28:01.291Z,99828.59
2022-12-23T00:30:29.174Z,99833.97
2022-12-23T00:32:56.890Z,99826.91
2022-12-23T00:35:25.886Z,99824.84
2022-12-23T00:37:53.512Z,99828.59
2022-12-23T00:40:38.941Z,99820.50
2022-12-23T00:43:06.619Z,99824.03
2022-12-23T00:45:34.320Z,99824.22
2022-12-23T00:48:19.541Z,99826.09
2022-12-23T00:50:48.678Z,99826.31
2022-12-23T00:53:16.329Z,99827.97
2022-12-23T00:55:44.007Z,99829.00
2022-12-23T00:58:11.679Z,99833.53
2022-12-23T01:00:56.565Z,99831.69
2022-12-23T01:03:41.781Z,99831.69
2022-12-23T01:06:10.921Z,99819.28
2022-12-23T01:08:38.630Z,99821.16
2022-12-23T01:11:06.555Z,99815.75
2022-12-23T01:13:34.282Z,99820.31
2022-12-23T01:16:02.300Z,99821.97
2022-12-23T01:18:29.965Z,99819.28
2022-12-23T01:20:57.798Z,99821.16
2022-12-23T01:23:26.871Z,99829.22
2022-12-23T01:25:58.420Z,99825.72
2022-12-23T01:28:26.236Z,99820.31
2022-12-23T01:30:53.904Z,99820.31
2022-12-23T01:33:21.744Z,99811.19
2022-12-23T01:35:49.427Z,99811.81
2022-12-23T01:38:17.093Z,99814.50
2022-12-23T01:40:46.136Z,99813.47
2022-12-23T01:43:15.892Z,99808.06
2022-12-23T01:45:43.552Z,99803.50
2022-12-23T01:48:11.774Z,99790.91
2022-12-23T01:50:39.798Z,99795.44
2022-12-23T01:53:08.642Z,99798.38
2022-12-23T01:55:37.919Z,99798.38
2022-12-23T01:58:08.824Z,99797.53
2022-12-23T02:00:53.945Z,99791.34
2022-12-23T02:03:39.033Z,99785.97
2022-12-23T02:06:20.855Z,99787.00
2022-12-23T02:09:06.037Z,99787.00
2022-12-23T02:11:36.437Z,99784.28
2022-12-23T02:14:26.324Z,99773.53
2022-12-23T02:16:55.676Z,99770.84
2022-12-23T02:19:25.498Z,99781.59
2022-12-23T02:21:59.385Z,99779.97
2022-12-23T02:24:35.616Z,99779.97
2022-12-23T02:27:09.604Z,99774.59
2022-12-23T02:29:52.114Z,99779.16
2022-12-23T02:32:22.432Z,99781.00
2022-12-23T02:34:51.332Z,99773.78
2022-12-23T02:37:19.861Z,99774.59
2022-12-23T02:39:49.604Z,99772.50
2022-12-23T02:42:17.525Z,99770.63
2022-12-23T02:44:45.496Z,99767.13
2022-12-23T02:47:13.813Z,99768.78
2022-12-23T02:49:45.186Z,99767.72
2022-12-23T02:52:14.546Z,99767.72
2022-12-23T02:54:43.118Z,99767.72
2022-12-23T02:57:10.780Z,99763.16
2022-12-23T02:59:40.236Z,99766.69
2022-12-23T03:02:08.082Z,99766.09
2022-12-23T03:04:38.329Z,99771.47
2022-12-23T03:07:10.458Z,99769.81
2022-12-23T03:09:41.394Z,99768.16
2022-12-23T03:12:11.057Z,99768.16
2022-12-23T03:14:51.049Z,99762.78
2022-12-23T03:17:36.702Z,99759.25
2022-12-23T03:20:05.378Z,99755.75
2022-12-23T03:22:36.001Z,99753.06
2022-12-23T03:25:04.867Z,99746.63
2022-12-23T03:27:34.431Z,99746.63
2022-12-23T03:30:03.194Z,99739.63
2022-12-23T03:32:32.702Z,99737.94
2022-12-23T03:35:00.521Z,99751.41
2022-12-23T03:37:28.315Z,99743.31
2022-12-23T03:39:58.756Z,99745.00
2022-12-23T03:42:27.508Z,99741.47
2022-12-23T03:45:28.069Z,99732.56
2022-12-23T03:47:44.713Z,99737.13
2022-12-23T03:50:12.730Z,99737.94
2022-12-23T03:52:40.990Z,99741.47
2022-12-23T03:55:11.728Z,99734.22
2022-12-23T03:57:40.109Z,99743.31
2022-12-23T04:00:09.443Z,99737.94
2022-12-23T04:02:39.881Z,99733.63
2022-12-23T04:05:11.720Z,99737.94
2022-12-23T04:07:39.920Z,99736.31
2022-12-23T04:10:10.850Z,99742.50
2022-12-23T04:12:38.470Z,99737.94
2022-12-23T04:15:12.584Z,99747.06
2022-12-23T04:17:40.958Z,99747.06
2022-12-23T04:20:09.145Z,99745.19
2022-12-23T04:22:37.023Z,99739.00
2022-12-23T04:25:05.002Z,99745.19
2022-12-23T04:27:34.029Z,99736.31
2022-12-23T04:30:01.770Z,99735.50
2022-12-23T04:32:29.487Z,99733.63
2022-12-23T04:34:57.174Z,99736.31
2022-12-23T04:37:24.841Z,99734.44
2022-12-23T04:39:53.845Z,99732.56
2022-12-23T04:42:21.545Z,99739.63
2022-12-23T04:44:50.664Z,99735.06
2022-12-23T04:47:18.375Z,99735.88
2022-12-23T04:49:46.049Z,99731.31
2022-12-23T04:52:13.723Z,99734.84
2022-12-23T04:54:46.070Z,99732.97
2022-12-23T04:57:14.375Z,99743.75
2022-12-23T04:59:42.060Z,99738.34
2022-12-23T05:02:11.310Z,99741.88
2022-12-23T05:04:39.052Z,99747.00
2022-12-23T05:07:06.741Z,99737.31
2022-12-23T05:09:34.396Z,99738.13
2022-12-23T05:12:02.065Z,99734.41
2022-12-23T05:14:29.786Z,99739.78
2022-12-23T05:17:02.168Z,99735.44
2022-12-23T05:19:34.525Z,99738.34
2022-12-23T05:22:02.184Z,99742.91
2022-12-23T05:24:29.857Z,99739.38
2022-12-23T05:27:00.048Z,99746.63
2022-12-23T05:29:28.206Z,99746.63
2022-12-23T05:31:56.001Z,99740.44
2022-12-23T05:34:23.659Z,99743.94
2022-12-23T05:36:52.712Z,99739.63
2022-12-23T05:39:20.403Z,99739.63
2022-12-23T05:41:48.022Z,99736.91
2022-12-23T05:44:15.769Z,99739.63
2022-12-23T05:46:43.544Z,99746.63
2022-12-23T05:49:11.287Z,99749.56
2022-12-23T05:51:38.976Z,99753.88
2022-12-23T05:54:08.117Z,99751.19
2022-12-23T05:56:35.779Z,99752.25
2022-12-23T05:59:04.022Z,99763.81
2022-12-23T06:01:31.695Z,99761.13
2022-12-23T06:03:59.561Z,99756.38
2022-12-23T06:06:27.361Z,99755.53
2022-12-23T06:08:59.594Z,99754.25
2022-12-23T06:11:29.544Z,99760.47
2022-12-23T06:13:57.178Z,99765.63
2022-12-23T06:16:24.934Z,99767.28
2022-12-23T06:18:55.084Z,99768.13
2022-12-23T06:21:22.730Z,99766.25
2022-12-23T06:23:50.421Z,99766.25
2022-12-23T06:26:18.072Z,99768.94
2022-12-23T06:28:47.087Z,99773.28
2022-12-23T06:31:14.814Z,99765.22
2022-12-23T06:33:42.528Z,99775.16
2022-12-23T06:36:10.519Z,99777.03
2022-12-23T06:38:38.280Z,99781.34
2022-12-23T06:41:06.110Z,99787.56
2022-12-23T06:43:33.771Z,99792.13
2022-12-23T06:46:03.016Z,99790.03
2022-12-23T06:48:30.712Z,99789.22
2022-12-23T06:50:58.404Z,99793.78
2022-12-23T06:53:26.144Z,99800.81
2022-12-23T06:55:59.956Z,99794.38
2022-12-23T06:58:27.595Z,99797.06
2022-12-23T07:00:55.273Z,99796.25
2022-12-23T07:03:24.429Z,99809.50
2022-12-23T07:05:52.428Z,99805.97
2022-12-23T07:08:20.062Z,99798.72
2022-12-23T07:10:48.064Z,99800.38
2022-12-23T07:13:15.774Z,99794.97
2022-12-23T07:15:43.601Z,99792.91
2022-12-23T07:18:11.296Z,99805.31
2022-12-23T07:20:40.357Z,99813.38
2022-12-23T07:23:08.057Z,99809.66
2022-12-23T07:25:35.857Z,99804.06
2022-12-23T07:28:03.514Z,99807.56
2022-12-23T07:30:31.422Z,99804.66
2022-12-23T07:32:59.091Z,99804.47
2022-12-23T07:35:26.739Z,99800.72
2022-12-23T07:37:56.121Z,99815.81
2022-12-23T07:40:26.177Z,99805.66
2022-12-23T07:42:55.069Z,99812.72
2022-12-23T07:45:22.780Z,99814.34
2022-12-23T07:47:53.012Z,99816.00
2022-12-23T07:50:20.764Z,99813.09
2022-12-23T07:52:48.437Z,99819.31
2022-12-23T07:55:17.605Z,99817.44
2022-12-23T07:57:48.731Z,99816.16
2022-12-23T08:00:17.306Z,99824.25
2022-12-23T08:02:45.059Z,99822.16
2022-12-23T08:05:12.987Z,99833.75
2022-12-23T08:07:40.968Z,99829.19
2022-12-23T08:10:09.252Z,99833.56
2022-12-23T08:12:38.369Z,99828.78
2022-12-23T08:15:06.670Z,99823.41
2022-12-23T08:17:34.393Z,99829.59
2022-12-23T08:20:02.074Z,99841.41
2022-12-23T08:22:29.745Z,99838.94
2022-12-23T08:24:57.488Z,99837.06
2022-12-23T08:27:25.157Z,99852.41
2022-12-23T08:29:54.176Z,99847.22
2022-12-23T08:32:21.872Z,99847.00
2022-12-23T08:34:49.615Z,99841.84
2022-12-23T08:37:17.245Z,99847.22
2022-12-23T08:39:44.901Z,99840.19
2022-12-23T08:42:12.605Z,99847.22
2022-12-23T08:44:42.491Z,99832.94
2022-12-23T08:47:11.702Z,99840.19
2022-12-23T08:49:39.481Z,99844.75
2022-12-23T08:52:07.166Z,99839.16
2022-12-23T08:54:34.922Z,99835.63
2022-12-23T08:57:02.579Z,99832.13
2022-12-23T08:59:30.612Z,99833.75
2022-12-23T09:01:59.883Z,99828.16
2022-12-23T09:04:29.631Z,99826.09
2022-12-23T09:06:57.349Z,99822.34
2022-12-23T09:09:25.010Z,99821.31
2022-12-23T09:11:53.068Z,99819.25
2022-12-23T09:14:20.796Z,99820.91
2022-12-23T09:16:51.055Z,99821.50
2022-12-23T09:19:18.854Z,99818.81
2022-12-23T09:21:48.082Z,99818.59
2022-12-23T09:24:15.758Z,99818.38
2022-12-23T09:26:43.560Z,99821.66
2022-12-23T09:29:11.274Z,99810.47
2022-12-23T09:31:39.012Z,99815.44
2022-12-23T09:34:09.739Z,99816.00
2022-12-23T09:36:37.493Z,99817.44
2022-12-23T09:39:06.625Z,99815.00
2022-12-23T09:41:48.481Z,99810.63
2022-12-23T09:44:21.082Z,99808.78
2022-12-23T09:46:49.305Z,99809.59
2022-12-23T09:49:17.572Z,99805.84
2022-12-23T09:51:45.230Z,99803.78
2022-12-23T09:54:17.413Z,99797.31
2022-12-23T09:56:47.038Z,99796.06
2022-12-23T09:59:17.902Z,99799.56
2022-12-23T10:01:46.857Z,99798.31
2022-12-23T10:04:33.530Z,99792.50
2022-12-23T10:07:06.223Z,99787.94
2022-12-23T10:09:35.627Z,99781.06
2022-12-23T10:12:03.584Z,99785.41
2022-12-23T10:14:32.000Z,99774.63
2022-12-23T10:17:01.731Z,99783.09
2022-12-23T10:19:29.957Z,99777.25
2022-12-23T10:22:00.269Z,99772.94
2022-12-23T10:24:28.904Z,99775.78
2022-12-23T10:27:00.670Z,99767.00
2022-12-23T10:29:30.439Z,99763.91
2022-12-23T10:32:05.185Z,99762.03
2022-12-23T10:34:38.626Z,99754.53
2022-12-23T10:37:07.907Z,99749.97
2022-12-23T10:39:37.427Z,99757.00
2022-12-23T10:42:12.620Z,99762.34
2022-12-23T10:44:55.994Z,99762.25
2022-12-23T10:47:26.618Z,99768.84
2022-12-23T10:49:55.895Z,99764.66
2022-12-23T10:52:24.141Z,99765.06
2022-12-23T10:54:51.881Z,99755.72
2022-12-23T10:57:20.940Z,99742.81
2022-12-23T10:59:48.610Z,99740.50
2022-12-23T11:02:23.717Z,99743.81
2022-12-23T11:04:51.631Z,99744.16
2022-12-23T11:10:15.064Z,99746.19
2022-12-23T11:12:44.533Z,99742.22
2022-12-23T11:15:25.905Z,99735.75
2022-12-23T11:17:58.765Z,99743.38
2022-12-23T11:20:26.748Z,99735.91
2022-12-23T11:22:55.042Z,99736.50
2022-12-23T11:25:30.463Z,99733.56
2022-12-23T11:28:00.001Z,99739.56
2022-12-23T11:30:27.802Z,99727.72
2022-12-23T11:32:58.499Z,99735.13
2022-12-23T11:35:26.796Z,99733.03
2022-12-23T11:37:54.486Z,99726.34
2022-12-23T11:40:23.489Z,99728.00
2022-12-23T11:42:55.176Z,99728.38
2022-12-23T11:45:25.026Z,99732.94
2022-12-23T11:47:52.847Z,99724.63
2022-12-23T11:50:33.982Z,99735.19
2022-12-23T11:53:15.569Z,99725.81
2022-12-23T11:55:46.410Z,99720.44
2022-12-23T11:58:17.355Z,99715.59
2022-12-23T12:00:55.847Z,99723.69
2022-12-23T12:03:25.703Z,99717.00
2022-12-23T12:05:54.651Z,99709.53
2022-12-23T12:08:22.826Z,99706.59
2022-12-23T12:10:52.085Z,99713.63
2022-12-23T12:13:23.095Z,99714.22
2022-12-23T12:15:53.045Z,99701.34
2022-12-23T12:18:20.808Z,99706.75
2022-12-23T12:20:50.153Z,99710.84
2022-12-23T12:23:18.629Z,99708.38
2022-12-23T12:25:48.168Z,99701.09
2022-12-23T12:28:16.388Z,99706.75
2022-12-23T12:30:46.122Z,99709.44
2022-12-23T12:33:16.601Z,99700.28
2022-12-23T12:35:45.374Z,99697.34
2022-12-23T12:38:14.676Z,99691.72
2022-12-23T12:40:42.718Z,99700.63
2022-12-23T12:43:15.894Z,99690.69
2022-12-23T12:45:45.187Z,99693.13
2022-12-23T12:48:22.424Z,99687.38
2022-12-23T12:50:52.104Z,99692.31
2022-12-23T12:53:22.781Z,99696.69
2022-12-23T12:55:51.497Z,99696.69
2022-12-23T12:58:20.870Z,99697.72
2022-12-23T13:00:50.310Z,99699.38
2022-12-23T13:03:23.756Z,99696.88
2022-12-23T13:08:32.523Z,99689.00
2022-12-23T13:11:01.321Z,99696.06
2022-12-23T13:13:33.210Z,99689.00
2022-12-23T13:16:02.098Z,99694.41
2022-12-23T13:18:35.804Z,99689.84
2022-12-23T13:21:04.465Z,99696.06
2022-12-23T13:23:48.381Z,99693.38
2022-12-23T13:26:19.768Z,99687.13
2022-12-23T13:28:48.986Z,99685.28
2022-12-23T13:31:29.864Z,99687.97
2022-12-23T13:33:59.753Z,99684.22
2022-12-23T13:36:32.592Z,99688.56
2022-12-23T13:39:04.405Z,99690.25
2022-12-23T13:41:33.315Z,99675.69
2022-12-23T13:44:01.483Z,99672.97
2022-12-23T13:46:34.572Z,99670.88
2022-12-23T13:49:04.450Z,99678.97
2022-12-23T13:51:34.397Z,99678.16
2022-12-23T13:54:05.279Z,99684.38
2022-12-23T13:56:35.773Z,99688.13
2022-12-23T13:59:04.430Z,99696.22
2022-12-23T14:01:36.850Z,99704.31
2022-12-23T14:04:32.430Z,99702.66
2022-12-23T14:07:02.151Z,99708.88
2022-12-23T14:09:30.459Z,99715.94
2022-12-23T14:12:02.768Z,99714.53
2022-12-23T14:14:32.372Z,99716.16
2022-12-23T14:17:03.082Z,99721.78
2022-12-23T14:19:36.538Z,99717.22
2022-12-23T14:22:08.569Z,99720.97
2022-12-23T14:24:51.138Z,99718.47
2022-12-23T14:27:26.301Z,99708.72
2022-12-23T14:30:03.167Z,99714.38
2022-12-23T14:32:38.750Z,99715.41
2022-12-23T14:35:16.272Z,99710.25
2022-12-23T14:37:46.450Z,99711.53
2022-12-23T14:40:32.451Z,99715.28
2022-12-23T14:43:15.821Z,99712.00
2022-12-23T14:45:43.650Z,99714.91
2022-12-23T14:48:27.780Z,99712.44
2022-12-23T14:50:57.448Z,99713.50
2022-12-23T14:53:27.280Z,99716.19
2022-12-23T14:56:16.795Z,99702.97
2022-12-23T14:58:54.396Z,99711.25
2022-12-23T15:01:22.495Z,99716.66
2022-12-23T15:03:57.411Z,99717.72
2022-12-23T15:06:34.790Z,99711.72
2022-12-23T15:09:04.824Z,99709.25
2022-12-23T15:11:33.076Z,99712.19
2022-12-23T15:14:01.404Z,99714.03
2022-12-23T15:16:34.864Z,99717.00
2022-12-23T15:19:03.441Z,99719.69
2022-12-23T15:21:32.665Z,99717.19
2022-12-23T15:24:00.370Z,99721.78
2022-12-23T15:26:31.895Z,99718.47
2022-12-23T15:29:00.949Z,99724.94
2022-12-23T15:31:30.833Z,99730.34
2022-12-23T15:34:04.065Z,99728.91
2022-12-23T15:36:36.983Z,99722.72
2022-12-23T15:39:08.525Z,99729.13
2022-12-23T15:41:45.800Z,99714.00
2022-12-23T15:44:14.212Z,99724.78
2022-12-23T15:46:42.006Z,99715.06
2022-12-23T15:49:12.943Z,99709.69
2022-12-23T15:54:31.827Z,99703.69
2022-12-23T15:57:01.321Z,99716.34
2022-12-23T15:59:30.854Z,99712.81
2022-12-23T16:01:58.613Z,99705.78
2022-12-23T16:04:28.347Z,99703.09
2022-12-23T16:06:56.171Z,99706.59
2022-12-23T16:09:25.000Z,99704.97
2022-12-23T16:11:53.658Z,99698.75
2022-12-23T16:14:32.300Z,99699.78
2022-12-23T16:17:00.940Z,99700.84
2022-12-23T16:19:38.366Z,99711.63
2022-12-23T16:22:07.539Z,99708.34
2022-12-23T16:24:35.229Z,99695.91
2022-12-23T16:27:03.814Z,99689.69
2022-12-23T16:29:34.583Z,99700.50
2022-12-23T16:32:06.981Z,99702.59
2022-12-23T16:34:34.688Z,99697.19
2022-12-23T16:37:03.118Z,99696.38
2022-12-23T16:39:30.766Z,99707.16
2022-12-23T16:42:00.894Z,99696.59
2022-12-23T16:44:28.572Z,99689.56
2022-12-23T16:47:05.262Z,99699.50
2022-12-23T16:49:33.984Z,99701.38
2022-12-23T16:52:01.950Z,99695.16
2022-12-23T16:54:31.955Z,99693.53
2022-12-23T16:57:00.397Z,99689.16
2022-12-23T16:59:27.998Z,99685.66
2022-12-23T17:02:03.197Z,99688.56
2022-12-23T17:04:33.571Z,99683.16
2022-12-23T17:07:01.971Z,99683.16
2022-12-23T17:09:29.676Z,99687.53
2022-12-23T17:11:58.235Z,99677.78
2022-12-23T17:14:26.101Z,99676.97
2022-12-23T17:16:54.610Z,99674.28
2022-12-23T17:19:29.066Z,99681.53
2022-12-23T17:22:01.039Z,99686.94
2022-12-23T17:24:28.917Z,99689.63
2022-12-23T17:26:57.123Z,99684.22
2022-12-23T17:29:25.553Z,99695.28
2022-12-23T17:31:53.350Z,99697.13
2022-12-23T17:34:22.302Z,99698.19
2022-12-23T17:36:51.133Z,99701.94
2022-12-23T17:39:21.303Z,99690.09
2022-12-23T17:41:49.010Z,99690.31
2022-12-23T17:44:17.941Z,99689.47
2022-12-23T17:46:48.527Z,99681.63
2022-12-23T17:49:17.176Z,99689.72
2022-12-23T17:51:45.478Z,99678.09
2022-12-23T17:54:19.130Z,99687.84
2022-12-23T17:56:48.132Z,99692.63
2022-12-23T17:59:16.086Z,99696.41
2022-12-23T18:01:46.145Z,99689.13
2022-12-23T18:04:14.698Z,99681.25
2022-12-23T18:06:43.784Z,99676.69
2022-12-23T18:09:11.495Z,99681.25
2022-12-23T18:11:42.983Z,99681.25
2022-12-23T18:14:13.721Z,99685.81
2022-12-23T18:16:41.426Z,99681.25
2022-12-23T18:19:11.868Z,99679.63
2022-12-23T18:21:39.533Z,99685.00
2022-12-23T18:24:10.036Z,99683.34
2022-12-23T18:26:37.702Z,99674.22
2022-12-23T18:29:10.077Z,99675.25
2022-12-23T18:31:50.545Z,99684.19
2022-12-23T18:34:19.739Z,99684.19
2022-12-23T18:36:48.323Z,99688.72
2022-12-23T18:39:18.577Z,99685.47
2022-12-23T18:41:46.246Z,99688.16
2022-12-23T18:44:18.050Z,99681.91
2022-12-23T18:46:47.230Z,99686.50
2022-12-23T18:49:15.699Z,99677.59
2022-12-23T18:51:43.395Z,99682.16
2022-12-23T18:54:11.319Z,99677.81
2022-12-23T18:56:39.694Z,99681.31
2022-12-23T18:59:11.137Z,99680.50
2022-12-23T19:01:39.607Z,99675.09
2022-12-23T19:04:11.990Z,99678.84
2022-12-23T19:06:40.639Z,99680.50
2022-12-23T19:09:08.273Z,99676.13
2022-12-23T19:11:35.898Z,99680.50
2022-12-23T19:14:04.374Z,99673.44
2022-12-23T19:16:32.156Z,99679.66
2022-12-23T19:19:00.635Z,99668.06
2022-12-23T19:21:30.068Z,99669.13
2022-12-23T19:24:00.359Z,99668.06
2022-12-23T19:26:28.518Z,99661.84
2022-12-23T19:28:56.947Z,99675.09
2022-12-23T19:31:42.779Z,99673.44
2022-12-23T19:34:15.497Z,99668.88
2022-12-23T19:36:45.149Z,99663.47
2022-12-23T19:39:17.227Z,99668.06
2022-12-23T19:41:45.344Z,99668.06
2022-12-23T19:44:13.863Z,99668.06
2022-12-23T19:46:41.568Z,99664.53
2022-12-23T19:49:12.747Z,99668.06
2022-12-23T19:51:47.077Z,99661.84
2022-12-23T19:54:14.853Z,99660.22
2022-12-23T19:56:46.068Z,99656.66
2022-12-23T19:59:13.823Z,99656.66
2022-12-23T20:01:42.305Z,99648.56
2022-12-23T20:04:11.479Z,99640.75
2022-12-23T20:06:40.014Z,99652.34
2022-12-23T20:09:09.436Z,99654.22
2022-12-23T20:11:38.203Z,99658.78
2022-12-23T20:14:05.833Z,99656.91
2022-12-23T20:16:34.742Z,99661.47
2022-12-23T20:19:02.429Z,99660.63
2022-12-23T20:21:30.069Z,99670.59
2022-12-23T20:23:58.420Z,99672.28
2022-12-23T20:26:29.022Z,99669.78
2022-12-23T20:28:58.063Z,99663.34
2022-12-23T20:31:26.180Z,99668.97
2022-12-23T20:33:54.698Z,99665.22
2022-12-23T20:36:22.786Z,99655.50
2022-12-23T20:38:51.262Z,99662.50
2022-12-23T20:41:19.255Z,99663.56
2022-12-23T20:44:23.458Z,99667.09
2022-12-23T20:46:36.792Z,99671.41
2022-12-23T20:49:06.205Z,99670.59
2022-12-23T20:51:33.917Z,99659.00
2022-12-23T20:54:01.617Z,99670.59
2022-12-23T20:56:31.142Z,99676.81
2022-12-23T20:59:02.320Z,99654.69
2022-12-23T21:01:31.359Z,99663.56
2022-12-23T21:04:00.847Z,99656.53
2022-12-23T21:06:29.756Z,99655.69
2022-12-23T21:09:00.322Z,99654.88
2022-12-23T21:11:28.579Z,99656.97
2022-12-23T21:13:59.904Z,99652.41
2022-12-23T21:16:33.515Z,99656.16
2022-12-23T21:19:02.008Z,99650.78
2022-12-23T21:21:31.117Z,99667.75
2022-12-23T21:24:00.054Z,99670.44
2022-12-23T21:26:29.568Z,99667.75
2022-12-23T21:28:59.535Z,99666.94
2022-12-23T21:31:28.231Z,99667.75
2022-12-23T21:33:57.269Z,99671.50
2022-12-23T21:36:26.301Z,99674.22
2022-12-23T21:38:53.921Z,99669.03
2022-12-23T21:41:22.183Z,99675.25
2022-12-23T21:43:50.638Z,99669.84
2022-12-23T21:46:18.749Z,99668.00
2022-12-23T21:48:47.325Z,99661.75
2022-12-23T21:51:16.724Z,99659.06
2022-12-23T21:53:44.654Z,99662.81
2022-12-23T21:56:13.584Z,99655.34
2022-12-23T21:58:41.403Z,99648.28
2022-12-23T22:01:10.269Z,99653.69
2022-12-23T22:03:38.692Z,99647.25
2022-12-23T22:06:10.556Z,99649.34
2022-12-23T22:08:39.984Z,99642.09
2022-12-23T22:11:09.130Z,99640.44
2022-12-23T22:13:36.880Z,99639.63
2022-12-23T22:16:04.692Z,99637.97
2022-12-23T22:18:34.195Z,99632.00
2022-12-23T22:21:05.072Z,99634.69
2022-12-23T22:23:33.441Z,99634.69
2022-12-23T22:26:02.622Z,99626.00
2022-12-23T22:28:31.306Z,99628.69
2022-12-23T22:31:02.825Z,99629.72
2022-12-23T22:33:30.481Z,99628.91
2022-12-23T22:35:59.630Z,99633.50
2022-12-23T22:38:27.305Z,99632.66
2022-12-23T22:40:55.007Z,99629.16
2022-12-23T22:43:24.698Z,99630.19
2022-12-23T22:45:56.169Z,99624.81
2022-12-23T22:48:30.344Z,99631.84
2022-12-23T22:51:03.926Z,99634.75
2022-12-23T22:53:34.405Z,99643.66
2022-12-23T22:56:03.577Z,99640.16
2022-12-23T22:58:33.475Z,99645.53
2022-12-23T23:01:01.188Z,99643.06
2022-12-23T23:03:29.524Z,99639.34
2022-12-23T23:06:01.889Z,99643.06
2022-12-23T23:08:29.609Z,99654.69
2022-12-23T23:10:57.328Z,99648.44
2022-12-23T23:13:25.456Z,99653.03
2022-12-23T23:15:54.704Z,99652.19
2022-12-23T23:18:22.329Z,99662.97
2022-12-23T23:20:52.902Z,99656.78
2022-12-23T23:23:20.880Z,99660.50
2022-12-23T23:25:48.759Z,99661.34
2022-12-23T23:28:16.456Z,99659.69
2022-12-23T23:30:44.072Z,99656.97
2022-12-23T23:33:13.301Z,99655.34
2022-12-23T23:35:40.934Z,99654.28
2022-12-23T23:38:11.340Z,99647.28
2022-12-23T23:40:39.108Z,99651.84
2022-12-23T23:43:06.890Z,99654.28
2022-12-23T23:45:34.584Z,99654.28
2022-12-23T23:48:02.264Z,99660.50
2022-12-23T23:50:31.311Z,99659.69
2022-12-23T23:52:58.911Z,99645.38
2022-12-23T23:55:26.611Z,99647.03
2022-12-23T23:57:54.248Z,99646.22
